Time;durP1;ratioP1;P1;durP2;ratioP2;P2;SDS_P1;SDS_P2;PMS_P1;PMS_P2;Temp;Humidity;BMP_temperature;BMP_pressure;BME280_temperature;BME280_humidity;BME280_pressure;Samples;Min_cycle;Max_cycle;Signal;HPM_P1;HPM_P2
2022/04/13 00:00:09;;;;;;;9.30;5.65;;;;;;;10.30;100.00;96118.81;5066576;28;20056;-49
2022/04/13 00:02:38;;;;;;;8.15;5.57;;;;;;;10.39;100.00;96123.16;5067681;28;20079;-49
2022/04/13 00:05:07;;;;;;;8.75;5.97;;;;;;;10.34;100.00;96114.88;5067283;28;20095;-50
2022/04/13 00:07:35;;;;;;;8.90;5.57;;;;;;;10.22;100.00;96116.91;5066851;28;21543;-49
2022/04/13 00:10:05;;;;;;;8.75;5.93;;;;;;;10.17;100.00;96117.31;5065918;28;20780;-53
2022/04/13 00:12:33;;;;;;;10.48;6.07;;;;;;;10.31;100.00;96107.28;5067090;28;20071;-46
2022/04/13 00:15:02;;;;;;;10.82;6.00;;;;;;;10.10;100.00;96113.63;5065227;28;20071;-45
2022/04/13 00:17:32;;;;;;;9.05;6.32;;;;;;;9.94;100.00;96114.31;5065161;28;20056;-46
2022/04/13 00:20:00;;;;;;;10.13;5.90;;;;;;;10.14;100.00;96116.81;5065943;28;20154;-52
2022/04/13 00:22:29;;;;;;;11.15;6.07;;;;;;;10.17;100.00;96121.78;5068286;28;20061;-52
2022/04/13 00:24:57;;;;;;;10.38;6.30;;;;;;;10.01;100.00;96117.16;5064908;28;20075;-47
2022/04/13 00:27:25;;;;;;;9.15;5.93;;;;;;;9.95;100.00;96121.25;5067775;28;20086;-46
2022/04/13 00:29:53;;;;;;;9.23;5.75;;;;;;;9.90;100.00;96118.22;5066028;28;20067;-53
2022/04/13 00:32:22;;;;;;;8.10;5.68;;;;;;;9.67;100.00;96117.81;5066112;28;20079;-56
2022/04/13 00:34:51;;;;;;;8.93;5.47;;;;;;;9.73;100.00;96117.19;5071482;28;20078;-54
2022/04/13 00:37:19;;;;;;;8.98;5.68;;;;;;;9.50;100.00;96113.34;5070054;28;20060;-54
2022/04/13 00:39:48;;;;;;;8.65;6.20;;;;;;;9.67;100.00;96117.81;5062431;28;20056;-50
2022/04/13 00:42:17;;;;;;;10.45;6.80;;;;;;;9.65;100.00;96117.13;5064964;28;20056;-54
2022/04/13 00:44:45;;;;;;;10.98;6.15;;;;;;;9.64;100.00;96118.09;5065587;28;20079;-55
2022/04/13 00:47:13;;;;;;;9.77;5.90;;;;;;;9.52;100.00;96119.25;5065279;28;20083;-53
2022/04/13 00:49:42;;;;;;;9.82;6.65;;;;;;;9.50;100.00;96111.53;5065474;28;20076;-52
2022/04/13 00:52:13;;;;;;;11.90;6.70;;;;;;;9.57;100.00;96116.22;5064704;28;20060;-51
2022/04/13 00:54:43;;;;;;;10.63;6.30;;;;;;;9.54;100.00;96121.78;5066465;28;20079;-52
2022/04/13 00:57:12;;;;;;;9.02;6.05;;;;;;;9.47;100.00;96114.44;5065311;28;20075;-54
2022/04/13 00:59:40;;;;;;;10.25;6.53;;;;;;;9.45;100.00;96119.03;5066102;28;20071;-52
2022/04/13 01:02:09;;;;;;;10.27;6.30;;;;;;;9.33;100.00;96116.75;5065565;28;20102;-48
2022/04/13 01:04:37;;;;;;;10.63;6.55;;;;;;;9.29;100.00;96116.22;5065467;28;20471;-54
2022/04/13 01:07:08;;;;;;;9.40;6.65;;;;;;;9.13;100.00;96119.44;5066050;28;20064;-49
2022/04/13 01:09:38;;;;;;;;;;;;;;;9.20;100.00;96119.69;5067600;28;20071;-54
2022/04/13 01:12:07;;;;;;;9.50;7.00;;;;;;;9.13;100.00;96122.06;5065518;28;19948;-47
2022/04/13 01:14:35;;;;;;;9.43;6.40;;;;;;;8.92;100.00;96127.53;5063586;28;20106;-48
2022/04/13 01:17:03;;;;;;;8.55;6.50;;;;;;;8.78;100.00;96126.19;5065629;28;20686;-53
2022/04/13 01:19:33;;;;;;;10.57;6.93;;;;;;;8.28;100.00;96121.09;5064939;28;20424;-50
2022/04/13 01:22:15;;;;;;;10.23;6.88;;;;;;;8.73;100.00;96125.75;5065552;28;20064;-51
2022/04/13 01:24:45;;;;;;;9.25;6.70;;;;;;;8.87;100.00;96129.75;5064310;28;20728;-54
2022/04/13 01:27:14;;;;;;;10.45;6.95;;;;;;;8.84;100.00;96130.03;5068745;28;20068;-49
2022/04/13 01:29:43;;;;;;;10.40;6.60;;;;;;;8.89;100.00;96129.63;5065166;28;20067;-56
2022/04/13 01:32:12;;;;;;;12.27;7.05;;;;;;;8.78;100.00;96130.63;5064230;28;21678;-47
2022/04/13 01:34:46;;;;;;;11.23;7.10;;;;;;;8.83;100.00;96135.44;5066615;28;20680;-49
2022/04/13 01:37:16;;;;;;;9.07;6.80;;;;;;;8.81;100.00;96130.34;5063642;28;20443;-53
2022/04/13 01:39:45;;;;;;;10.02;7.32;;;;;;;8.67;100.00;96136.00;5062977;28;20492;-56
2022/04/13 01:42:13;;;;;;;9.00;6.70;;;;;;;8.74;100.00;96139.75;5065158;28;20076;-54
2022/04/13 01:44:45;;;;;;;10.50;7.38;;;;;;;8.76;100.00;96140.44;5067504;28;20083;-50
2022/04/13 01:47:13;;;;;;;10.68;6.78;;;;;;;8.74;100.00;96139.75;5066056;28;20487;-52
2022/04/13 01:49:42;;;;;;;10.13;7.13;;;;;;;8.72;100.00;96150.41;5061195;28;20084;-52
2022/04/13 01:52:12;;;;;;;9.10;6.90;;;;;;;8.73;100.00;96141.53;5064931;28;20104;-52
2022/04/13 01:54:41;;;;;;;9.43;7.27;;;;;;;8.27;100.00;96156.22;5062047;28;20068;-53
2022/04/13 01:57:10;;;;;;;12.27;7.53;;;;;;;8.52;100.00;96154.03;5064462;28;20068;-58
2022/04/13 01:59:38;;;;;;;11.95;7.50;;;;;;;8.58;100.00;96156.09;5063358;28;20181;-53
2022/04/13 02:02:06;;;;;;;12.35;7.95;;;;;;;8.22;100.00;96158.41;5064362;28;20088;-55
2022/04/13 02:04:35;;;;;;;10.48;7.50;;;;;;;8.15;100.00;96156.47;5064380;28;21381;-51
2022/04/13 02:07:04;;;;;;;12.07;7.43;;;;;;;8.14;100.00;96158.28;5066043;28;20064;-55
2022/04/13 02:09:32;;;;;;;10.43;7.10;;;;;;;7.69;100.00;96153.50;5063545;28;20075;-48
2022/04/13 02:12:01;;;;;;;11.43;7.10;;;;;;;7.66;100.00;96158.19;5065134;28;20055;-49
2022/04/13 02:14:30;;;;;;;12.70;6.97;;;;;;;7.80;100.00;96157.81;5064512;28;20449;-51
2022/04/13 02:16:58;;;;;;;11.20;6.93;;;;;;;7.45;100.00;96156.47;5065446;28;20048;-52
2022/04/13 02:19:27;;;;;;;10.38;6.95;;;;;;;7.88;100.00;96154.50;5063600;28;20044;-53
2022/04/13 02:21:55;;;;;;;13.95;7.13;;;;;;;7.70;100.00;96152.53;5065381;28;20063;-55
2022/04/13 02:24:23;;;;;;;10.52;7.20;;;;;;;7.83;100.00;96139.16;5064780;28;20387;-50
2022/04/13 02:26:51;;;;;;;11.20;7.10;;;;;;;7.30;100.00;96147.31;5064596;28;20064;-52
2022/04/13 02:29:21;;;;;;;10.88;7.30;;;;;;;7.14;100.00;96153.03;5062970;28;20079;-53
2022/04/13 02:31:49;;;;;;;10.38;7.13;;;;;;;6.93;100.00;96141.75;5062473;28;20083;-49
2022/04/13 02:34:18;;;;;;;8.60;7.25;;;;;;;7.14;100.00;96139.91;5060772;28;20060;-52
2022/04/13 02:36:46;;;;;;;9.27;7.13;;;;;;;6.77;100.00;96143.03;5065358;28;20072;-54
2022/04/13 02:39:15;;;;;;;12.50;7.72;;;;;;;6.76;100.00;96137.91;5063199;28;20092;-52
2022/04/13 02:41:43;;;;;;;11.73;7.93;;;;;;;6.94;100.00;96138.97;5065357;28;20083;-51
2022/04/13 02:44:11;;;;;;;11.82;7.65;;;;;;;7.01;100.00;96136.66;5063197;28;20080;-56
2022/04/13 02:46:41;;;;;;;11.68;8.40;;;;;;;7.07;100.00;96134.34;5064561;28;20068;-50
2022/04/13 02:49:09;;;;;;;11.83;8.07;;;;;;;7.29;100.00;96130.72;5063409;28;20056;-47
2022/04/13 02:51:38;;;;;;;11.65;8.00;;;;;;;7.47;100.00;96140.59;5071758;28;20482;-49
2022/04/13 02:54:06;;;;;;;11.02;7.90;;;;;;;7.61;100.00;96133.19;5063792;28;20063;-49
2022/04/13 02:56:34;;;;;;;14.13;7.57;;;;;;;7.85;100.00;96132.00;5064947;28;20060;-50
2022/04/13 02:59:03;;;;;;;11.30;7.40;;;;;;;8.12;100.00;96138.34;5063084;28;20083;-53
2022/04/13 03:01:31;;;;;;;14.05;7.43;;;;;;;8.15;100.00;96132.84;5043179;28;20065;-52
2022/04/13 03:04:01;;;;;;;13.00;7.90;;;;;;;7.71;100.00;96133.22;5058314;28;20064;-54
2022/04/13 03:06:29;;;;;;;13.27;8.07;;;;;;;7.21;100.00;96130.56;5063787;28;20091;-53
2022/04/13 03:08:58;;;;;;;13.00;6.97;;;;;;;7.65;100.00;96136.38;5063643;28;20060;-54
2022/04/13 03:11:26;;;;;;;11.60;6.45;;;;;;;7.57;100.00;96136.19;5063270;28;20069;-54
2022/04/13 03:13:54;;;;;;;8.57;6.82;;;;;;;7.55;100.00;96138.97;5062507;28;20072;-51
2022/04/13 03:16:22;;;;;;;11.88;7.72;;;;;;;7.66;100.00;96132.75;5062599;28;20076;-57
2022/04/13 03:18:51;;;;;;;9.40;6.15;;;;;;;7.49;100.00;96136.88;5065229;28;20057;-51
2022/04/13 03:21:20;;;;;;;8.48;5.70;;;;;;;7.10;100.00;96130.66;5061088;28;20115;-49
2022/04/13 03:23:48;;;;;;;8.68;6.28;;;;;;;7.16;100.00;96135.38;5064402;28;20064;-57
2022/04/13 03:26:17;;;;;;;11.63;6.78;;;;;;;7.06;100.00;96140.56;5062710;28;20072;-55
2022/04/13 03:28:45;;;;;;;9.63;6.28;;;;;;;6.38;100.00;96147.19;5066384;28;20510;-53
2022/04/13 03:31:13;;;;;;;14.40;6.43;;;;;;;6.69;100.00;96145.47;5063514;28;20056;-51
2022/04/13 03:33:42;;;;;;;10.60;6.82;;;;;;;6.92;100.00;96140.91;5065140;28;20627;-53
2022/04/13 03:36:10;;;;;;;10.15;7.28;;;;;;;6.81;100.00;96141.81;5064496;28;20080;-54
2022/04/13 03:38:40;;;;;;;9.50;6.60;;;;;;;6.24;100.00;96147.50;5065285;28;20063;-48
2022/04/13 03:41:08;;;;;;;9.60;7.18;;;;;;;6.36;100.00;96152.53;5062819;28;20059;-47
2022/04/13 03:43:36;;;;;;;9.90;7.25;;;;;;;6.69;100.00;96150.72;5069449;28;20084;-52
2022/04/13 03:46:05;;;;;;;13.90;7.75;;;;;;;6.72;100.00;96153.06;5061916;28;20068;-52
2022/04/13 03:48:35;;;;;;;13.10;7.67;;;;;;;6.61;100.00;96148.72;5066909;28;20064;-51
2022/04/13 03:51:03;;;;;;;11.15;7.03;;;;;;;6.56;100.00;96158.75;5064676;28;20475;-53
2022/04/13 03:53:31;;;;;;;10.18;7.15;;;;;;;6.76;100.00;96156.25;5063443;28;20065;-54
2022/04/13 03:56:01;;;;;;;9.48;6.68;;;;;;;6.84;100.00;96154.66;5067768;28;20068;-58
2022/04/13 03:58:29;;;;;;;13.52;7.65;;;;;;;6.83;100.00;96150.38;5062663;28;20061;-53
2022/04/13 04:00:57;;;;;;;11.38;7.35;;;;;;;6.79;100.00;96158.63;5067329;28;20494;-53
2022/04/13 04:03:26;;;;;;;12.50;7.40;;;;;;;6.31;100.00;96165.19;5063983;28;20528;-50
2022/04/13 04:05:54;;;;;;;10.55;7.63;;;;;;;6.20;100.00;96164.41;5064659;28;20071;-50
2022/04/13 04:08:23;;;;;;;12.82;7.82;;;;;;;6.03;100.00;96164.00;5063348;28;20219;-53
2022/04/13 04:10:52;;;;;;;9.77;7.43;;;;;;;5.74;100.00;96168.06;5067107;28;20071;-51
2022/04/13 04:13:22;;;;;;;9.43;7.40;;;;;;;6.42;100.00;96170.38;5064357;28;20067;-53
2022/04/13 04:15:50;;;;;;;13.03;7.63;;;;;;;5.83;100.00;96175.19;5061383;28;20064;-51
2022/04/13 04:18:18;;;;;;;13.82;8.25;;;;;;;6.13;100.00;96171.94;5065644;28;20474;-50
2022/04/13 04:20:47;;;;;;;14.25;8.15;;;;;;;6.01;100.00;96178.97;5061675;28;20060;-51
2022/04/13 04:23:15;;;;;;;15.30;7.97;;;;;;;6.17;100.00;96182.03;5065293;28;20070;-55
2022/04/13 04:25:43;;;;;;;12.32;7.95;;;;;;;6.00;100.00;96173.88;5068737;28;20079;-51
2022/04/13 04:28:12;;;;;;;15.00;7.97;;;;;;;6.16;100.00;96180.38;5062697;28;21292;-54
2022/04/13 04:30:42;;;;;;;12.93;7.88;;;;;;;6.33;100.00;96186.00;5066244;28;20065;-49
2022/04/13 04:33:12;;;;;;;;;;;;;;;6.09;100.00;96179.19;5064365;28;20501;-54
2022/04/13 04:35:41;;;;;;;11.30;7.43;;;;;;;6.37;100.00;96177.78;5081242;28;19986;-58
2022/04/13 04:38:09;;;;;;;12.63;7.40;;;;;;;5.87;100.00;96180.03;5070840;28;20449;-58
2022/04/13 04:40:38;;;;;;;10.23;7.22;;;;;;;5.93;100.00;96182.22;5068266;28;20068;-52
2022/04/13 04:43:06;;;;;;;14.40;7.82;;;;;;;6.18;100.00;96183.66;5075435;28;20469;-55
2022/04/13 04:45:34;;;;;;;11.80;8.07;;;;;;;6.46;100.00;96184.03;5084548;28;20550;-54
2022/04/13 04:48:05;;;;;;;12.63;8.18;;;;;;;6.27;100.00;96191.75;5070523;28;20056;-55
2022/04/13 04:50:35;;;;;;;15.02;8.77;;;;;;;6.39;100.00;96188.13;5076349;28;20055;-53
2022/04/13 04:53:03;;;;;;;16.60;7.90;;;;;;;6.80;100.00;96192.56;5073986;28;20087;-55
2022/04/13 04:55:32;;;;;;;10.70;8.23;;;;;;;6.87;100.00;96187.63;5064691;28;20071;-53
2022/04/13 04:58:02;;;;;;;11.32;7.88;;;;;;;7.00;100.00;96185.66;5068679;28;20066;-54
2022/04/13 05:00:35;;;;;;;12.23;7.78;;;;;;;7.07;100.00;96183.34;5068222;28;20580;-50
2022/04/13 05:03:05;;;;;;;13.90;8.63;;;;;;;7.12;100.00;96191.63;5070901;28;20527;-51
2022/04/13 05:05:35;;;;;;;11.35;8.07;;;;;;;7.18;100.00;96191.13;5064953;28;20068;-49
2022/04/13 05:08:04;;;;;;;12.63;7.88;;;;;;;7.36;100.00;96194.81;5071584;28;20083;-56
2022/04/13 05:10:32;;;;;;;12.50;8.00;;;;;;;7.62;100.00;96191.72;5068588;28;20382;-51
2022/04/13 05:13:02;;;;;;;11.80;8.00;;;;;;;8.01;100.00;96191.84;5066160;28;20068;-55
2022/04/13 05:15:31;;;;;;;11.77;8.00;;;;;;;8.34;100.00;96195.91;5063515;28;20538;-50
2022/04/13 05:18:00;;;;;;;10.10;7.90;;;;;;;8.39;100.00;96195.50;5068011;28;20074;-50
2022/04/13 05:20:29;;;;;;;13.60;7.93;;;;;;;8.48;100.00;96206.03;5073387;28;20067;-52
2022/04/13 05:23:16;;;;;;;11.32;8.15;;;;;;;8.69;100.00;96207.69;5058795;28;20051;-51
2022/04/13 05:25:46;;;;;;;10.23;6.45;;;;;;;8.45;100.00;96201.03;5068927;28;20075;-52
2022/04/13 05:28:15;;;;;;;10.93;7.53;;;;;;;8.35;100.00;96204.59;5065125;28;20668;-54
2022/04/13 05:30:43;;;;;;;10.35;7.32;;;;;;;8.71;100.00;96203.97;5062783;28;20514;-49
2022/04/13 05:33:12;;;;;;;13.35;7.95;;;;;;;8.83;100.00;96199.38;5063361;28;20687;-50
2022/04/13 05:35:42;;;;;;;10.55;7.93;;;;;;;9.17;100.00;96205.00;5061728;28;20063;-50
2022/04/13 05:38:10;;;;;;;12.70;8.40;;;;;;;9.20;100.00;96201.25;5062070;28;20933;-54
2022/04/13 05:40:38;;;;;;;19.05;8.75;;;;;;;9.45;100.00;96205.03;5065809;28;20106;-51
2022/04/13 05:43:06;;;;;;;14.90;8.38;;;;;;;9.70;100.00;96203.56;5063990;28;20095;-53
2022/04/13 05:45:35;;;;;;;11.63;8.48;;;;;;;9.79;100.00;96200.06;5066230;28;20358;-51
2022/04/13 05:48:05;;;;;;;13.00;8.98;;;;;;;9.78;100.00;96197.59;5065174;28;20068;-51
2022/04/13 05:50:33;;;;;;;11.45;8.32;;;;;;;10.25;100.00;96205.34;5065948;28;20506;-55
2022/04/13 05:53:02;;;;;;;13.43;8.52;;;;;;;10.31;100.00;96202.16;5063073;28;20079;-52
2022/04/13 05:55:31;;;;;;;12.65;8.63;;;;;;;10.39;100.00;96207.50;5063874;28;20056;-54
2022/04/13 05:58:00;;;;;;;15.13;9.20;;;;;;;10.81;100.00;96210.38;5063155;28;20071;-53
2022/04/13 06:00:28;;;;;;;16.60;9.25;;;;;;;11.13;100.00;96209.78;5068836;28;20041;-53
2022/04/13 06:02:56;;;;;;;12.68;8.57;;;;;;;11.17;100.00;96218.22;5068430;28;20079;-52
2022/04/13 06:05:25;;;;;;;11.15;8.77;;;;;;;10.96;100.00;96215.91;5070517;28;20080;-51
2022/04/13 06:07:54;;;;;;;17.77;10.10;;;;;;;10.65;100.00;96221.59;5069383;28;20143;-56
2022/04/13 06:10:24;;;;;;;15.77;9.95;;;;;;;10.02;100.00;96226.84;5068802;28;20102;-54
2022/04/13 06:12:52;;;;;;;13.90;9.50;;;;;;;10.02;100.00;96231.28;5069389;28;20087;-53
2022/04/13 06:15:20;;;;;;;14.68;9.32;;;;;;;9.80;100.00;96216.69;5065966;28;20495;-51
2022/04/13 06:17:48;;;;;;;11.52;8.50;;;;;;;9.99;100.00;96230.59;5067051;28;20071;-50
2022/04/13 06:20:17;;;;;;;12.13;8.38;;;;;;;10.61;100.00;96229.97;5068731;28;20548;-53
2022/04/13 06:22:45;;;;;;;12.82;9.13;;;;;;;10.49;100.00;96237.25;5069120;28;20076;-50
2022/04/13 06:25:13;;;;;;;13.95;9.43;;;;;;;10.99;100.00;96241.19;5067438;28;20060;-49
2022/04/13 06:27:44;;;;;;;12.57;9.10;;;;;;;11.20;100.00;96233.75;5067453;28;20079;-56
2022/04/13 06:30:13;;;;;;;12.60;8.82;;;;;;;11.09;100.00;96237.47;5068218;28;20060;-53
2022/04/13 06:32:43;;;;;;;13.93;8.93;;;;;;;11.27;100.00;96229.50;5067754;28;20072;-54
2022/04/13 06:35:12;;;;;;;15.50;9.15;;;;;;;11.45;100.00;96231.28;5065878;28;20534;-57
2022/04/13 06:37:42;;;;;;;13.43;9.23;;;;;;;11.15;100.00;96236.03;5068915;28;20087;-51
2022/04/13 06:40:11;;;;;;;14.05;9.05;;;;;;;10.82;100.00;96241.03;5067331;28;20119;-55
2022/04/13 06:42:40;;;;;;;13.40;9.13;;;;;;;11.48;100.00;96241.53;5067699;28;20041;-56
2022/04/13 06:45:13;;;;;;;10.50;8.63;;;;;;;11.94;100.00;96239.50;5061774;28;20060;-48
2022/04/13 06:47:42;;;;;;;12.25;9.43;;;;;;;12.59;100.00;96229.13;5062947;28;20471;-54
2022/04/13 06:50:11;;;;;;;13.38;9.20;;;;;;;12.43;100.00;96247.63;5067883;28;20700;-53
2022/04/13 06:52:40;;;;;;;13.65;9.23;;;;;;;12.80;100.00;96236.59;5068926;28;20090;-50
2022/04/13 06:55:10;;;;;;;13.98;8.82;;;;;;;12.67;100.00;96239.72;5068564;28;20083;-56
2022/04/13 06:57:38;;;;;;;12.88;9.10;;;;;;;12.99;100.00;96240.75;5068114;28;20064;-51
2022/04/13 07:00:08;;;;;;;12.30;8.88;;;;;;;13.17;100.00;96243.22;5070170;28;20068;-52
2022/04/13 07:02:38;;;;;;;11.80;8.83;;;;;;;13.68;100.00;96234.09;5064442;28;20753;-49
2022/04/13 07:05:27;;;;;;;12.67;8.53;;;;;;;13.43;100.00;96232.50;5069140;28;20499;-51
2022/04/13 07:07:56;;;;;;;13.73;9.43;;;;;;;12.80;100.00;96236.59;5068927;28;20100;-55
2022/04/13 07:10:26;;;;;;;12.32;9.23;;;;;;;13.21;100.00;96241.91;5067848;28;20075;-53
2022/04/13 07:12:54;;;;;;;16.48;9.18;;;;;;;13.90;100.00;96240.50;5067496;28;20434;-54
2022/04/13 07:15:23;;;;;;;13.00;9.32;;;;;;;13.83;100.00;96244.81;5067780;28;20071;-52
2022/04/13 07:17:53;;;;;;;17.63;9.25;;;;;;;14.11;100.00;96236.41;5067995;28;20064;-55
2022/04/13 07:20:22;;;;;;;12.43;8.60;;;;;;;14.23;100.00;96238.53;5067236;28;20725;-54
2022/04/13 07:22:51;;;;;;;12.75;8.38;;;;;;;14.10;100.00;96238.25;5065875;28;20076;-58
2022/04/13 07:25:20;;;;;;;15.43;9.13;;;;;;;14.15;100.00;96237.75;5067957;28;20075;-56
2022/04/13 07:27:49;;;;;;;12.32;8.23;;;;;;;14.28;100.00;96242.47;5061566;28;20068;-55
2022/04/13 07:30:17;;;;;;;10.02;7.93;;;;;;;14.37;100.00;96236.16;5068084;28;20055;-53
2022/04/13 07:32:46;;;;;;;11.70;8.82;;;;;;;13.88;100.00;96241.66;5066817;28;20064;-53
2022/04/13 07:35:16;;;;;;;14.65;8.95;;;;;;;14.50;100.00;96241.75;5065323;28;20079;-55
2022/04/13 07:37:44;;;;;;;12.93;9.00;;;;;;;14.13;100.00;96231.78;5062909;28;20083;-47
2022/04/13 07:40:14;;;;;;;11.00;8.88;;;;;;;14.69;100.00;96249.28;5067614;28;20159;-53
2022/04/13 07:42:43;;;;;;;14.73;9.05;;;;;;;14.76;100.00;96243.25;5067268;28;20518;-54
2022/04/13 07:45:12;;;;;;;12.02;8.95;;;;;;;14.95;100.00;96243.63;5068136;28;20060;-53
2022/04/13 07:47:40;;;;;;;11.75;8.68;;;;;;;15.05;100.00;96248.69;5067918;28;20056;-52
2022/04/13 07:50:11;;;;;;;12.90;8.75;;;;;;;15.35;100.00;96251.47;5067530;28;20072;-53
2022/04/13 07:52:42;;;;;;;12.15;8.95;;;;;;;14.85;100.00;96250.16;5068233;28;20568;-49
2022/04/13 07:55:11;;;;;;;18.63;9.25;;;;;;;15.20;100.00;96259.34;5071199;28;20068;-55
2022/04/13 07:57:39;;;;;;;10.30;7.97;;;;;;;15.10;100.00;96253.47;5070877;28;20060;-55
2022/04/13 08:00:09;;;;;;;14.35;8.65;;;;;;;15.61;100.00;96248.38;5070884;28;20075;-49
2022/04/13 08:02:38;;;;;;;17.70;8.82;;;;;;;15.78;100.00;96251.72;5071005;28;20470;-46
2022/04/13 08:05:08;;;;;;;13.15;9.00;;;;;;;15.51;100.00;96253.13;5072197;28;20088;-57
2022/04/13 08:07:36;;;;;;;14.13;8.95;;;;;;;16.26;100.00;96245.03;5071962;28;20091;-50
2022/04/13 08:10:07;;;;;;;12.10;8.55;;;;;;;16.68;100.00;96243.47;5071268;28;20072;-53
2022/04/13 08:12:35;;;;;;;12.43;8.68;;;;;;;16.41;100.00;96239.66;5071099;28;20064;-53
2022/04/13 08:15:05;;;;;;;14.60;8.52;;;;;;;16.77;99.53;96239.72;5071348;28;20581;-56
2022/04/13 08:17:48;;;;;;;11.13;8.50;;;;;;;17.00;100.00;96241.41;5071449;28;20055;-54
2022/04/13 08:20:17;;;;;;;12.10;7.95;;;;;;;16.55;100.00;96251.31;5070640;28;20076;-50
2022/04/13 08:22:45;;;;;;;10.63;8.38;;;;;;;17.21;99.44;96248.56;5068961;28;20083;-53
2022/04/13 08:25:15;;;;;;;13.15;8.95;;;;;;;17.50;95.27;96247.56;5071356;28;20581;-53
2022/04/13 08:27:44;;;;;;;11.27;8.48;;;;;;;17.20;100.00;96247.72;5070936;28;20041;-57
2022/04/13 08:30:13;;;;;;;10.18;8.65;;;;;;;17.65;93.86;96248.31;5064341;28;20072;-53
2022/04/13 08:32:41;;;;;;;11.35;8.00;;;;;;;17.48;96.81;96249.59;5060386;28;20065;-53
2022/04/13 08:35:10;;;;;;;10.25;7.68;;;;;;;18.08;90.94;96255.38;5069590;28;20411;-55
2022/04/13 08:37:39;;;;;;;12.13;8.18;;;;;;;17.42;95.16;96253.88;5070876;28;20064;-57
2022/04/13 08:40:10;;;;;;;;;;;;;;;17.70;93.89;96247.72;5070754;28;20064;-51
2022/04/13 08:42:47;;;;;;;9.35;8.00;;;;;;;18.89;84.80;96253.72;5070777;28;19956;-54
2022/04/13 08:45:20;;;;;;;8.35;7.25;;;;;;;18.74;82.97;96259.19;5070665;28;20064;-52
2022/04/13 08:47:49;;;;;;;12.55;7.50;;;;;;;19.25;80.02;96257.06;5070834;28;20037;-53
2022/04/13 08:50:18;;;;;;;12.50;7.82;;;;;;;19.56;75.22;96261.81;5069583;28;20084;-54
2022/04/13 08:52:55;;;;;;;15.27;8.80;;;;;;;19.07;74.14;96263.00;5071129;28;20556;-51
2022/04/13 08:55:24;;;;;;;11.98;8.70;;;;;;;19.21;71.10;96270.00;5070782;28;20079;-49
2022/04/13 08:57:57;;;;;;;10.13;8.02;;;;;;;19.50;72.77;96268.78;5070216;28;20451;-50
2022/04/13 09:00:26;;;;;;;10.30;7.72;;;;;;;18.68;74.62;96272.50;5070144;28;20071;-52
2022/04/13 09:03:09;;;;;;;15.07;7.68;;;;;;;19.43;69.65;96268.78;5055963;28;20053;-52
2022/04/13 09:05:47;;;;;;;12.00;7.63;;;;;;;19.85;66.67;96277.44;5050335;28;20067;-50
2022/04/13 09:08:21;;;;;;;9.85;8.15;;;;;;;19.28;72.33;96276.19;5070330;28;20643;-58
2022/04/13 09:10:52;;;;;;;11.00;8.27;;;;;;;19.39;69.84;96277.41;5070772;28;20099;-50
2022/04/13 09:13:24;;;;;;;10.23;8.05;;;;;;;19.85;67.52;96260.56;5068785;28;20067;-49
2022/04/13 09:15:53;;;;;;;10.43;8.00;;;;;;;19.86;66.34;96272.94;5067629;28;20068;-52
2022/04/13 09:18:21;;;;;;;9.27;7.72;;;;;;;19.50;70.19;96276.81;5070145;28;20441;-51
2022/04/13 09:20:50;;;;;;;11.43;8.05;;;;;;;19.42;64.96;96279.69;5069785;28;20064;-47
2022/04/13 09:23:20;;;;;;;9.13;7.47;;;;;;;20.30;61.80;96258.84;5069909;28;20170;-52
2022/04/13 09:25:51;;;;;;;;;;;;;;;20.74;58.29;96262.63;5070875;28;20076;-50
2022/04/13 09:28:20;;;;;;;9.55;7.70;;;;;;;20.40;59.12;96271.78;5066424;28;19959;-49
2022/04/13 09:30:49;;;;;;;11.32;7.07;;;;;;;20.95;56.79;96268.69;5068974;28;20056;-48
2022/04/13 09:33:17;;;;;;;7.93;6.72;;;;;;;21.20;54.28;96261.56;5065082;28;20072;-55
2022/04/13 09:35:45;;;;;;;8.38;7.40;;;;;;;21.07;55.57;96267.00;5069867;28;20071;-54
2022/04/13 09:38:16;;;;;;;11.32;7.53;;;;;;;20.97;54.33;96270.13;5069991;28;20052;-54
2022/04/13 09:40:44;;;;;;;;;;;;;;;21.25;54.48;96266.25;5070954;28;20431;-54
2022/04/13 09:43:18;;;;;;;10.68;7.15;;;;;;;20.92;57.89;96255.72;5065195;28;19974;-56
2022/04/13 09:45:49;;;;;;;10.35;7.15;;;;;;;22.02;51.34;96256.16;5063352;28;20376;-46
2022/04/13 09:48:19;;;;;;;12.32;7.40;;;;;;;20.68;58.01;96265.31;5064922;28;20063;-52
2022/04/13 09:50:49;;;;;;;8.60;7.33;;;;;;;21.78;52.05;96266.72;5068602;28;20093;-53
2022/04/13 09:53:18;;;;;;;9.77;7.75;;;;;;;22.01;52.77;96255.34;5069115;28;20509;-55
2022/04/13 09:55:50;;;;;;;12.32;8.20;;;;;;;21.81;53.38;96262.75;5070286;28;20088;-54
2022/04/13 09:58:22;;;;;;;10.13;7.97;;;;;;;21.25;54.46;96263.56;5069417;28;20079;-54
2022/04/13 10:00:53;;;;;;;10.63;7.80;;;;;;;20.74;59.72;96273.34;5069544;28;20079;-48
2022/04/13 10:03:23;;;;;;;16.52;8.73;;;;;;;21.44;55.65;96268.03;5069885;28;20068;-52
2022/04/13 10:05:52;;;;;;;10.52;7.53;;;;;;;21.86;57.54;96267.47;5069350;28;20072;-53
2022/04/13 10:08:23;;;;;;;10.45;8.30;;;;;;;21.30;57.04;96274.47;5064331;28;20082;-53
2022/04/13 10:10:52;;;;;;;9.70;8.00;;;;;;;21.76;52.67;96267.97;5069389;28;20095;-45
2022/04/13 10:13:34;;;;;;;8.15;7.13;;;;;;;21.84;51.17;96272.22;5065495;28;20076;-54
2022/04/13 10:16:07;;;;;;;11.05;7.40;;;;;;;21.72;50.57;96267.59;5068850;28;20071;-49
2022/04/13 10:18:55;;;;;;;10.18;7.50;;;;;;;21.27;52.80;96265.00;5065232;28;20060;-47
2022/04/13 10:21:41;;;;;;;9.60;7.95;;;;;;;21.79;52.96;96264.84;5065364;28;20566;-51
2022/04/13 10:24:11;;;;;;;9.32;7.78;;;;;;;22.22;47.96;96253.28;5066975;28;20056;-50
2022/04/13 10:26:42;;;;;;;11.20;7.88;;;;;;;22.05;50.90;96261.06;5061201;28;20469;-49
2022/04/13 10:29:16;;;;;;;13.40;8.95;;;;;;;21.55;53.32;96255.75;5068024;28;20087;-53
2022/04/13 10:32:02;;;;;;;9.82;7.82;;;;;;;21.70;54.86;96260.78;5062772;28;20084;-55
2022/04/13 10:34:31;;;;;;;9.10;7.78;;;;;;;21.73;51.59;96250.44;5070289;28;20599;-49
2022/04/13 10:37:00;;;;;;;10.93;7.65;;;;;;;21.74;52.46;96251.25;5066863;28;21071;-49
2022/04/13 10:39:28;;;;;;;10.85;7.15;;;;;;;22.21;55.02;96248.97;5064984;28;20554;-48
2022/04/13 10:41:56;;;;;;;10.80;7.70;;;;;;;21.89;51.95;96245.56;5067349;28;20071;-53
2022/04/13 10:44:30;;;;;;;11.52;7.95;;;;;;;21.80;55.60;96245.00;5064546;28;20071;-53
2022/04/13 10:47:03;;;;;;;11.02;8.68;;;;;;;22.14;54.38;96250.88;5063823;28;20076;-52
2022/04/13 10:49:39;;;;;;;8.75;7.65;;;;;;;21.88;54.53;96246.59;5066516;28;20592;-46
2022/04/13 10:52:09;;;;;;;11.52;8.48;;;;;;;22.33;54.53;96243.66;5067589;28;20080;-55
2022/04/13 10:54:38;;;;;;;11.25;8.55;;;;;;;22.04;56.42;96241.47;5068370;28;20071;-56
2022/04/13 10:57:07;;;;;;;12.50;8.18;;;;;;;22.42;52.87;96237.78;5068453;28;20079;-56
2022/04/13 10:59:44;;;;;;;11.52;7.85;;;;;;;22.44;50.42;96230.31;5068125;28;20056;-54
2022/04/13 11:02:26;;;;;;;13.73;9.45;;;;;;;21.90;54.66;96234.59;5060550;28;20079;-57
2022/04/13 11:04:54;;;;;;;10.65;7.60;;;;;;;22.38;52.94;96236.59;5069741;28;20087;-47
2022/04/13 11:07:24;;;;;;;11.38;8.30;;;;;;;22.84;50.86;96237.06;5067969;28;20079;-47
2022/04/13 11:09:55;;;;;;;7.80;6.82;;;;;;;22.82;50.02;96228.41;5068275;28;20072;-52
2022/04/13 11:12:25;;;;;;;10.15;7.45;;;;;;;22.90;47.76;96228.91;5068206;28;20573;-49
2022/04/13 11:14:54;;;;;;;11.57;8.77;;;;;;;22.24;54.07;96232.41;5068838;28;20070;-53
2022/04/13 11:17:30;;;;;;;9.73;8.38;;;;;;;22.31;49.80;96243.09;5068181;28;20116;-51
2022/04/13 11:20:16;;;;;;;11.00;8.35;;;;;;;22.13;54.14;96225.06;5072780;28;20071;-48
2022/04/13 11:23:08;;;;;;;9.02;7.95;;;;;;;22.63;50.87;96223.06;5056964;28;20072;-56
2022/04/13 11:25:47;;;;;;;9.55;8.30;;;;;;;22.56;49.50;96226.88;5067740;28;20515;-52
2022/04/13 11:28:27;;;;;;;9.32;7.55;;;;;;;22.08;50.50;96233.78;5068318;28;20074;-50
2022/04/13 11:31:06;;;;;;;12.40;8.43;;;;;;;21.85;52.42;96234.44;5066605;28;20076;-46
2022/04/13 11:33:53;;;;;;;9.87;7.93;;;;;;;21.81;52.38;96234.03;5073598;28;20075;-55
2022/04/13 11:36:23;;;;;;;11.77;8.82;;;;;;;21.81;53.92;96230.53;5072153;28;20091;-48
2022/04/13 11:39:13;;;;;;;9.70;7.07;;;;;;;22.04;50.75;96229.91;5068960;28;20071;-54